Time;durP1;ratioP1;P1;durP2;ratioP2;P2;SDS_P1;SDS_P2;PMS_P1;PMS_P2;Temp;Humidity;BMP_temperature;BMP_pressure;BME280_temperature;BME280_humidity;BME280_pressure;Samples;Min_cycle;Max_cycle;Signal;HPM_P1;HPM_P2
2022/11/26 03:01:35;;;;;;;14.70;13.50;;;5.80;99.90;;;;;;5494190;23;20240;-80
2022/11/26 03:04:07;;;;;;;14.03;13.13;;;5.80;99.90;;;;;;4913415;29;20672;-79
2022/11/26 03:06:35;;;;;;;14.87;13.77;;;5.80;99.90;;;;;;4908090;29;20208;-79
2022/11/26 03:09:02;;;;;;;14.90;13.80;;;5.80;99.90;;;;;;4913535;29;20278;-80
2022/11/26 03:11:30;;;;;;;14.83;13.73;;;5.90;99.90;;;;;;4902323;29;20713;-79
2022/11/26 03:13:57;;;;;;;14.63;13.63;;;5.80;99.90;;;;;;4897903;29;20197;-79
2022/11/26 03:16:23;;;;;;;14.90;13.70;;;5.90;99.90;;;;;;4896848;29;20745;-79
2022/11/26 03:18:52;;;;;;;14.53;13.30;;;5.90;99.90;;;;;;4895466;29;20201;-80
2022/11/26 03:21:18;;;;;;;14.70;13.47;;;5.90;99.90;;;;;;4897143;29;20597;-79
2022/11/26 03:23:45;;;;;;;15.13;14.10;;;5.90;99.90;;;;;;4897994;29;20206;-80
2022/11/26 03:26:12;;;;;;;14.93;13.73;;;5.90;99.90;;;;;;4897798;29;20198;-80
2022/11/26 03:28:39;;;;;;;14.70;13.50;;;5.90;99.90;;;;;;4896889;29;20308;-79
2022/11/26 03:31:06;;;;;;;14.47;13.47;;;5.90;99.90;;;;;;4896168;29;20233;-79
2022/11/26 03:33:33;;;;;;;14.30;13.40;;;5.90;99.90;;;;;;4896170;29;20212;-79
2022/11/26 03:36:01;;;;;;;13.40;12.50;;;5.90;99.90;;;;;;4897817;29;20228;-80
2022/11/26 03:38:28;;;;;;;12.97;12.07;;;5.90;99.90;;;;;;4890029;29;20189;-80
2022/11/26 03:41:00;;;;;;;14.50;13.20;;;6.00;99.90;;;;;;4895722;29;20601;-80
2022/11/26 03:43:27;;;;;;;14.20;12.90;;;5.90;99.90;;;;;;4895879;29;20230;-78
2022/11/26 03:45:54;;;;;;;12.80;11.93;;;6.00;99.90;;;;;;4894374;29;20260;-79
2022/11/26 03:48:21;;;;;;;12.67;11.67;;;5.90;99.90;;;;;;4895582;29;20220;-79
2022/11/26 03:50:48;;;;;;;12.40;11.57;;;5.90;99.90;;;;;;4896725;29;20221;-80
2022/11/26 03:53:16;;;;;;;13.50;12.60;;;5.90;99.90;;;;;;4897765;29;20205;-79
2022/11/26 03:55:43;;;;;;;13.17;12.20;;;5.90;99.90;;;;;;4896624;29;20223;-80
2022/11/26 03:58:10;;;;;;;13.93;12.73;;;5.90;99.90;;;;;;4896502;29;20209;-81
2022/11/26 04:00:36;;;;;;;13.90;12.83;;;5.80;99.90;;;;;;4900355;29;20205;-79
2022/11/26 04:03:03;;;;;;;14.27;13.20;;;5.80;99.90;;;;;;4901521;29;20580;-80
2022/11/26 04:05:30;;;;;;;14.67;13.50;;;5.80;99.90;;;;;;4895141;29;20492;-80
2022/11/26 04:07:57;;;;;;;13.97;12.87;;;5.80;99.90;;;;;;4897237;29;20197;-78
2022/11/26 04:10:25;;;;;;;14.03;13.03;;;5.80;99.90;;;;;;4899978;29;20695;-80
2022/11/26 04:12:52;;;;;;;14.73;13.50;;;5.80;99.90;;;;;;4899194;29;20210;-79
2022/11/26 04:15:19;;;;;;;14.67;13.57;;;5.70;99.90;;;;;;4901024;29;20253;-79
2022/11/26 04:17:46;;;;;;;14.73;13.53;;;5.70;99.90;;;;;;4899709;29;20708;-80
2022/11/26 04:20:13;;;;;;;14.50;13.30;;;5.60;99.90;;;;;;4899346;29;20198;-80
2022/11/26 04:22:40;;;;;;;13.90;13.00;;;5.60;99.90;;;;;;4900598;29;20216;-78
2022/11/26 04:25:07;;;;;;;13.93;12.83;;;5.60;99.90;;;;;;4901023;29;20201;-80
2022/11/26 04:27:36;;;;;;;13.77;12.87;;;5.50;99.90;;;;;;4899533;29;20204;-79
2022/11/26 04:30:03;;;;;;;13.93;12.90;;;5.50;99.90;;;;;;4894887;29;20225;-79
2022/11/26 04:32:30;;;;;;;14.20;13.20;;;5.40;99.90;;;;;;4899575;29;20228;-80
2022/11/26 04:34:57;;;;;;;14.23;13.33;;;5.40;99.90;;;;;;4899623;29;20577;-79
2022/11/26 04:37:24;;;;;;;14.53;13.43;;;5.40;99.90;;;;;;4899244;29;20233;-80
2022/11/26 04:39:51;;;;;;;14.53;13.43;;;5.40;99.90;;;;;;4900841;29;20225;-80
2022/11/26 04:42:18;;;;;;;14.60;13.60;;;5.30;99.90;;;;;;4899228;29;20229;-78
2022/11/26 04:44:46;;;;;;;14.80;13.67;;;5.30;99.90;;;;;;4900860;29;20204;-78
2022/11/26 04:47:13;;;;;;;15.00;14.00;;;5.30;99.90;;;;;;4900607;29;20725;-78
2022/11/26 04:49:40;;;;;;;15.20;14.00;;;5.20;99.90;;;;;;4899062;29;20501;-78
2022/11/26 04:52:06;;;;;;;14.93;13.60;;;5.20;99.90;;;;;;4899004;29;20233;-80
2022/11/26 04:54:33;;;;;;;14.57;13.47;;;5.10;99.90;;;;;;4900568;29;20737;-80
2022/11/26 04:57:00;;;;;;;14.63;13.43;;;5.10;99.90;;;;;;4898825;29;20280;-79
2022/11/26 04:59:27;;;;;;;14.90;13.80;;;5.00;99.90;;;;;;4891316;29;20264;-80
2022/11/26 05:01:55;;;;;;;15.00;13.80;;;5.00;99.90;;;;;;4893640;29;20236;-81
2022/11/26 05:04:22;;;;;;;14.63;13.53;;;4.90;99.90;;;;;;4900092;29;20216;-79
2022/11/26 05:06:49;;;;;;;14.10;13.03;;;5.00;99.90;;;;;;4900897;29;20196;-79
2022/11/26 05:09:16;;;;;;;15.03;13.53;;;4.90;99.90;;;;;;4900701;29;20228;-80
2022/11/26 05:11:43;;;;;;;15.73;14.27;;;5.00;99.90;;;;;;4899101;29;20232;-80
2022/11/26 05:14:10;;;;;;;15.47;13.97;;;5.00;99.90;;;;;;4900444;29;20695;-79
2022/11/26 05:16:36;;;;;;;14.80;13.50;;;5.00;99.90;;;;;;4899336;29;20197;-80
2022/11/26 05:19:05;;;;;;;14.97;13.97;;;5.10;99.90;;;;;;4901956;29;20213;-80
2022/11/26 05:21:32;;;;;;;15.17;14.07;;;5.10;99.90;;;;;;4900044;29;20231;-79
2022/11/26 05:23:59;;;;;;;15.43;14.17;;;5.10;99.90;;;;;;4898823;29;20592;-79
2022/11/26 05:26:26;;;;;;;15.57;14.17;;;5.10;99.90;;;;;;4899954;29;20202;-78
2022/11/26 05:28:53;;;;;;;15.77;14.33;;;5.10;99.90;;;;;;4898889;29;20766;-78
2022/11/26 05:31:19;;;;;;;15.93;14.67;;;5.00;99.90;;;;;;4899387;29;20249;-80
2022/11/26 05:33:46;;;;;;;15.53;14.30;;;5.00;99.90;;;;;;4898703;29;20253;-79
2022/11/26 05:36:14;;;;;;;14.60;13.50;;;5.00;99.90;;;;;;4898549;29;20232;-79
2022/11/26 05:38:41;;;;;;;15.97;14.67;;;5.00;99.90;;;;;;4899925;29;20200;-80
2022/11/26 05:41:08;;;;;;;16.13;14.93;;;4.90;99.90;;;;;;4898006;29;20236;-80
2022/11/26 05:43:35;;;;;;;16.80;15.27;;;4.90;99.90;;;;;;4898562;29;20201;-80
2022/11/26 05:46:05;;;;;;;16.20;15.00;;;4.90;99.90;;;;;;4900120;29;20197;-79
2022/11/26 05:48:32;;;;;;;15.47;14.37;;;4.90;99.90;;;;;;4898515;29;20211;-80
2022/11/26 05:51:00;;;;;;;15.80;14.60;;;4.90;99.90;;;;;;4899463;29;20650;-80
2022/11/26 05:53:29;;;;;;;15.80;14.67;;;4.90;99.90;;;;;;4899873;29;20216;-80
2022/11/26 05:55:56;;;;;;;15.43;14.40;;;5.00;99.90;;;;;;4899540;29;20578;-81
2022/11/26 05:58:23;;;;;;;15.90;14.60;;;5.00;99.90;;;;;;4898649;29;20210;-80
2022/11/26 06:00:49;;;;;;;16.67;15.23;;;4.90;99.90;;;;;;4897740;29;20241;-78
2022/11/26 06:03:16;;;;;;;15.43;14.33;;;4.90;99.90;;;;;;4900185;29;20219;-78
2022/11/26 06:05:43;;;;;;;15.77;14.40;;;4.90;99.90;;;;;;4898890;29;20201;-77
2022/11/26 06:08:10;;;;;;;15.87;14.60;;;4.90;99.90;;;;;;4899595;29;20278;-79
2022/11/26 06:10:41;;;;;;;15.23;14.03;;;4.90;99.90;;;;;;4902411;29;20229;-77
2022/11/26 06:13:07;;;;;;;16.47;15.03;;;5.00;99.90;;;;;;4901998;29;20210;-81
2022/11/26 06:15:34;;;;;;;15.53;14.47;;;5.00;99.90;;;;;;4900050;29;20208;-80
2022/11/26 06:18:01;;;;;;;16.03;14.93;;;5.00;99.90;;;;;;4898366;29;20208;-79
2022/11/26 06:20:28;;;;;;;16.63;15.13;;;5.10;99.90;;;;;;4898309;29;20205;-77
2022/11/26 06:22:55;;;;;;;16.30;14.73;;;5.00;99.90;;;;;;4899735;29;20202;-78
2022/11/26 06:25:22;;;;;;;16.57;15.00;;;5.00;99.90;;;;;;4891860;29;21502;-80
2022/11/26 06:27:50;;;;;;;16.13;14.93;;;4.90;99.90;;;;;;4897329;29;20217;-79
2022/11/26 06:30:18;;;;;;;17.17;15.87;;;4.80;99.90;;;;;;4898617;29;20217;-81
2022/11/26 06:32:45;;;;;;;15.97;14.70;;;4.70;99.90;;;;;;4897330;29;20228;-80
2022/11/26 06:35:12;;;;;;;15.53;14.53;;;4.60;99.90;;;;;;4897379;29;20204;-79
2022/11/26 06:37:39;;;;;;;16.30;15.10;;;4.50;99.90;;;;;;4897659;29;20685;-80
2022/11/26 06:40:07;;;;;;;16.67;15.33;;;4.50;99.90;;;;;;4892685;29;20568;-80
2022/11/26 06:42:34;;;;;;;16.60;15.10;;;4.40;99.90;;;;;;4890279;29;20230;-80
2022/11/26 06:45:02;;;;;;;16.23;14.90;;;4.40;99.90;;;;;;4897587;29;20208;-80
2022/11/26 06:47:29;;;;;;;16.83;15.37;;;4.40;99.90;;;;;;4896478;29;20204;-81
2022/11/26 06:49:56;;;;;;;16.07;15.00;;;4.40;99.90;;;;;;4898462;29;20221;-80
2022/11/26 06:52:23;;;;;;;17.63;16.00;;;4.40;99.90;;;;;;4899102;29;20229;-80
2022/11/26 06:54:49;;;;;;;17.13;15.93;;;4.40;99.90;;;;;;4898943;29;20658;-80
2022/11/26 06:57:16;;;;;;;17.60;16.20;;;4.40;99.90;;;;;;4896899;29;20212;-80
2022/11/26 06:59:43;;;;;;;16.97;15.70;;;4.40;99.90;;;;;;4898957;29;20184;-77
2022/11/26 07:02:11;;;;;;;17.73;16.23;;;4.40;99.90;;;;;;4898861;29;20292;-79
2022/11/26 07:04:38;;;;;;;17.63;16.30;;;4.50;99.90;;;;;;4898351;29;20208;-79
2022/11/26 07:07:05;;;;;;;18.00;16.43;;;4.50;99.90;;;;;;4896952;29;20677;-78
2022/11/26 07:09:32;;;;;;;17.83;16.40;;;4.60;99.90;;;;;;4897373;29;20208;-78
2022/11/26 07:11:59;;;;;;;18.53;16.97;;;4.70;99.90;;;;;;4898317;29;20239;-78
2022/11/26 07:14:25;;;;;;;18.30;16.70;;;4.80;99.90;;;;;;4900021;29;20197;-78
2022/11/26 07:16:52;;;;;;;17.53;16.33;;;4.80;99.90;;;;;;4899154;29;20189;-80
2022/11/26 07:19:21;;;;;;;17.53;16.23;;;4.80;99.90;;;;;;4897329;29;20233;-79
2022/11/26 07:21:48;;;;;;;17.33;15.93;;;4.80;99.90;;;;;;4895817;29;20229;-79
2022/11/26 07:24:15;;;;;;;17.17;16.00;;;4.80;99.90;;;;;;4892286;29;20336;-80
2022/11/26 07:26:42;;;;;;;17.93;16.60;;;4.80;99.90;;;;;;4896530;29;20628;-79
2022/11/26 07:29:09;;;;;;;16.97;15.87;;;4.80;99.90;;;;;;4896250;29;20216;-79
2022/11/26 07:31:36;;;;;;;16.83;15.60;;;4.80;99.90;;;;;;4896809;29;20220;-79
2022/11/26 07:34:02;;;;;;;17.27;15.83;;;4.80;99.90;;;;;;4896469;29;20268;-80
2022/11/26 07:36:31;;;;;;;17.60;16.30;;;4.80;99.90;;;;;;4894531;29;20208;-80
2022/11/26 07:39:00;;;;;;;16.03;14.93;;;4.80;99.90;;;;;;4891994;29;20206;-80
2022/11/26 07:41:28;;;;;;;16.73;15.43;;;4.90;99.90;;;;;;4889285;29;20265;-78
2022/11/26 07:43:55;;;;;;;16.60;15.40;;;4.90;99.90;;;;;;4899001;29;20677;-81
2022/11/26 07:46:24;;;;;;;16.60;15.20;;;5.00;99.90;;;;;;4900602;29;20200;-79
2022/11/26 07:48:51;;;;;;;16.80;15.50;;;5.00;99.90;;;;;;4900416;29;20196;-78
2022/11/26 07:51:19;;;;;;;16.33;15.03;;;5.00;99.90;;;;;;4891913;29;20224;-79
2022/11/26 07:53:48;;;;;;;17.10;15.60;;;5.00;99.90;;;;;;4894147;29;20241;-79
2022/11/26 07:56:15;;;;;;;16.40;15.20;;;5.10;99.90;;;;;;4897352;29;20216;-80
2022/11/26 07:58:42;;;;;;;16.37;15.13;;;5.20;99.90;;;;;;4889540;29;20241;-80
2022/11/26 08:01:11;;;;;;;16.23;15.10;;;5.30;99.90;;;;;;4897908;29;20229;-80
2022/11/26 08:03:39;;;;;;;16.10;15.00;;;5.40;99.90;;;;;;4898070;29;20211;-82
2022/11/26 08:06:07;;;;;;;17.07;15.73;;;5.30;99.90;;;;;;4902081;29;20197;-79
2022/11/26 08:08:35;;;;;;;16.30;15.00;;;5.40;99.90;;;;;;4898694;29;20208;-80
2022/11/26 08:11:04;;;;;;;16.97;15.33;;;5.40;99.90;;;;;;4896964;29;20240;-81
2022/11/26 08:13:31;;;;;;;16.20;15.10;;;5.30;99.90;;;;;;4892321;29;20201;-82
2022/11/26 08:15:58;;;;;;;16.47;15.27;;;5.30;99.90;;;;;;4897056;29;20303;-80
2022/11/26 08:18:25;;;;;;;16.23;15.03;;;5.40;99.90;;;;;;4896909;29;20697;-81
2022/11/26 08:20:55;;;;;;;15.67;14.57;;;5.40;99.90;;;;;;4894271;29;20221;-80
2022/11/26 08:23:23;;;;;;;16.70;15.60;;;5.60;99.90;;;;;;4896417;29;20233;-81
2022/11/26 08:25:50;;;;;;;16.60;15.33;;;5.70;99.90;;;;;;4895419;29;20213;-80
2022/11/26 08:28:18;;;;;;;16.77;15.47;;;5.80;99.90;;;;;;4895924;29;20236;-80
2022/11/26 08:30:46;;;;;;;16.27;15.17;;;5.80;99.90;;;;;;4896958;29;20229;-80
2022/11/26 08:33:14;;;;;;;17.20;15.93;;;5.90;99.90;;;;;;4895919;29;20220;-80
2022/11/26 08:35:41;;;;;;;16.63;15.20;;;5.90;99.90;;;;;;4896818;29;20213;-80
2022/11/26 08:38:08;;;;;;;15.23;14.10;;;5.90;99.90;;;;;;4896022;29;20684;-80
2022/11/26 08:40:35;;;;;;;15.53;14.30;;;5.90;99.90;;;;;;4896303;29;20263;-81
2022/11/26 08:43:01;;;;;;;15.03;14.03;;;6.00;99.90;;;;;;4896090;29;20210;-80
2022/11/26 08:45:30;;;;;;;15.47;14.37;;;6.00;99.90;;;;;;4898940;29;20205;-80
2022/11/26 08:47:56;;;;;;;15.50;14.50;;;6.00;99.90;;;;;;4900202;29;20210;-80
2022/11/26 08:50:24;;;;;;;15.40;14.13;;;6.00;99.90;;;;;;4899663;29;20279;-81
2022/11/26 08:52:51;;;;;;;15.57;14.37;;;6.00;99.90;;;;;;4899758;29;20274;-81
2022/11/26 08:55:18;;;;;;;14.73;13.60;;;6.00;99.90;;;;;;4899615;29;20578;-81
2022/11/26 08:57:46;;;;;;;14.57;13.37;;;6.10;99.90;;;;;;4899456;29;20580;-81
2022/11/26 09:00:14;;;;;;;14.43;13.43;;;6.10;99.90;;;;;;4901168;29;20195;-81
2022/11/26 09:02:42;;;;;;;14.27;13.27;;;6.20;99.90;;;;;;4899698;29;20323;-80
2022/11/26 09:05:09;;;;;;;15.70;14.50;;;6.20;99.90;;;;;;4899751;29;20229;-81
2022/11/26 09:07:36;;;;;;;14.53;13.53;;;6.30;99.90;;;;;;4901892;29;20198;-80
2022/11/26 09:10:03;;;;;;;14.20;13.20;;;6.40;99.90;;;;;;4898891;29;20579;-81
2022/11/26 09:12:30;;;;;;;15.27;14.27;;;6.60;99.90;;;;;;4902698;29;20230;-80
2022/11/26 09:14:57;;;;;;;15.73;14.40;;;6.70;99.90;;;;;;4900611;29;20285;-81
2022/11/26 09:17:24;;;;;;;15.87;14.63;;;6.70;99.90;;;;;;4900486;29;20207;-81
2022/11/26 09:19:52;;;;;;;15.80;14.50;;;6.70;99.90;;;;;;4901010;29;20579;-80
2022/11/26 09:22:19;;;;;;;15.33;14.33;;;6.70;99.90;;;;;;4899710;29;20225;-80
2022/11/26 09:24:46;;;;;;;16.17;15.07;;;6.70;99.90;;;;;;4899251;29;20226;-80
2022/11/26 09:27:13;;;;;;;15.73;14.63;;;6.80;99.90;;;;;;4900380;29;20203;-81
2022/11/26 09:29:40;;;;;;;15.40;14.40;;;6.80;99.90;;;;;;4898611;29;20667;-80
2022/11/26 09:32:08;;;;;;;15.53;14.43;;;6.70;99.90;;;;;;4898930;29;20239;-81
2022/11/26 09:34:35;;;;;;;16.07;14.87;;;6.70;99.90;;;;;;4900232;29;20199;-80
2022/11/26 09:37:03;;;;;;;15.20;14.10;;;6.60;99.90;;;;;;4900195;29;20203;-80
2022/11/26 09:39:30;;;;;;;15.33;14.37;;;6.60;99.90;;;;;;4892707;29;20723;-81
2022/11/26 09:42:04;;;;;;;15.10;14.10;;;6.60;99.90;;;;;;4898997;29;20215;-81
2022/11/26 09:44:46;;;;;;;15.67;14.47;;;6.60;99.90;;;;;;4891645;29;20286;-81
2022/11/26 09:47:17;;;;;;;16.07;14.87;;;6.60;99.90;;;;;;4899144;29;20206;-80
2022/11/26 09:49:54;;;;;;;16.10;15.00;;;6.60;99.90;;;;;;4900329;29;20209;-81
2022/11/26 09:52:26;;;;;;;15.47;14.30;;;6.60;99.90;;;;;;4898828;29;20230;-81
2022/11/26 09:55:01;;;;;;;15.10;14.10;;;6.50;99.90;;;;;;4899775;29;20195;-80
2022/11/26 09:57:35;;;;;;;15.13;14.03;;;6.60;99.90;;;;;;4891613;29;20202;-80
2022/11/26 10:00:25;;;;;;;15.50;14.37;;;6.70;99.90;;;;;;4900200;29;20210;-80
2022/11/26 10:02:53;;;;;;;16.47;15.27;;;6.80;99.90;;;;;;4899380;29;20216;-81
2022/11/26 10:05:22;;;;;;;15.77;14.67;;;6.80;99.90;;;;;;4898377;29;20194;-80
2022/11/26 10:08:04;;;;;;;16.30;15.07;;;6.80;99.90;;;;;;4898341;29;20213;-81
2022/11/26 10:10:38;;;;;;;15.57;14.47;;;6.90;99.90;;;;;;4891959;29;20203;-80
2022/11/26 10:13:19;;;;;;;16.30;15.10;;;6.90;99.90;;;;;;4899573;29;20198;-80
2022/11/26 10:15:55;;;;;;;15.83;14.73;;;7.00;99.90;;;;;;4892906;29;20210;-80
2022/11/26 10:18:33;;;;;;;15.33;14.23;;;7.10;99.90;;;;;;4898054;29;20820;-80
2022/11/26 10:21:15;;;;;;;15.80;14.60;;;7.10;99.90;;;;;;4898846;29;20230;-80
2022/11/26 10:23:47;;;;;;;15.80;14.70;;;7.20;99.90;;;;;;4896139;29;20207;-80
2022/11/26 10:26:17;;;;;;;15.27;14.10;;;7.30;99.90;;;;;;4897423;29;20275;-81
2022/11/26 10:28:46;;;;;;;15.43;14.33;;;7.40;99.90;;;;;;4897909;29;20210;-80
2022/11/26 10:31:20;;;;;;;15.17;14.07;;;7.40;99.90;;;;;;4897417;29;20235;-80
2022/11/26 10:33:56;;;;;;;15.53;14.43;;;7.50;99.90;;;;;;4898831;29;20213;-80
2022/11/26 10:36:26;;;;;;;14.03;13.13;;;7.60;99.90;;;;;;4898560;29;20208;-80
2022/11/26 10:38:56;;;;;;;14.03;13.03;;;7.70;99.90;;;;;;4898065;29;20191;-80
2022/11/26 10:41:26;;;;;;;14.47;13.37;;;7.80;99.90;;;;;;4896608;29;20232;-79
2022/11/26 10:43:52;;;;;;;14.33;13.30;;;7.80;99.90;;;;;;4898074;29;20228;-80
2022/11/26 10:46:32;;;;;;;13.90;13.00;;;7.90;99.90;;;;;;4898331;29;20207;-80
2022/11/26 10:49:21;;;;;;;13.20;12.40;;;7.90;99.90;;;;;;4910188;29;20588;-81
2022/11/26 10:51:49;;;;;;;14.20;13.00;;;8.00;99.90;;;;;;4896138;29;20700;-80
2022/11/26 10:54:26;;;;;;;14.80;13.60;;;7.90;99.90;;;;;;4896563;29;20235;-80
2022/11/26 10:56:54;;;;;;;14.47;13.37;;;7.90;99.90;;;;;;4898311;29;20621;-80
2022/11/26 10:59:26;;;;;;;13.17;12.17;;;8.00;99.90;;;;;;4897538;29;20210;-79
2022/11/26 11:01:54;;;;;;;13.13;12.23;;;8.00;99.90;;;;;;4896448;29;20238;-80
2022/11/26 11:04:28;;;;;;;13.40;12.30;;;8.00;99.90;;;;;;4897848;29;20204;-80
2022/11/26 11:06:56;;;;;;;13.00;12.00;;;8.10;99.90;;;;;;4896274;29;20215;-80
2022/11/26 11:09:31;;;;;;;13.00;12.10;;;8.10;99.90;;;;;;4897107;29;20570;-80
2022/11/26 11:12:20;;;;;;;13.90;13.00;;;8.20;99.90;;;;;;4898202;29;20230;-80
2022/11/26 11:14:48;;;;;;;14.53;13.53;;;8.20;99.90;;;;;;4893247;29;20189;-80
2022/11/26 11:17:34;;;;;;;13.40;12.40;;;8.30;99.90;;;;;;4896314;29;20209;-81
2022/11/26 11:20:07;;;;;;;12.30;11.60;;;8.30;99.90;;;;;;4897129;29;20216;-80
2022/11/26 11:22:34;;;;;;;14.20;13.30;;;8.30;99.90;;;;;;4893269;29;20288;-80
2022/11/26 11:25:03;;;;;;;13.33;12.33;;;8.40;99.90;;;;;;4896301;29;20228;-80
2022/11/26 11:27:39;;;;;;;13.37;12.47;;;8.40;99.90;;;;;;4888269;29;20617;-80
2022/11/26 11:30:07;;;;;;;13.40;12.60;;;8.40;99.90;;;;;;4895557;29;20207;-79
2022/11/26 11:32:36;;;;;;;13.57;12.67;;;8.40;99.90;;;;;;4897398;29;20248;-80
2022/11/26 11:35:21;;;;;;;13.17;12.17;;;8.50;99.90;;;;;;4896020;29;20230;-79
2022/11/26 11:37:50;;;;;;;12.97;12.10;;;8.50;99.90;;;;;;4896065;29;20674;-80
2022/11/26 11:40:24;;;;;;;14.33;13.30;;;8.60;99.90;;;;;;4895596;29;20692;-81
2022/11/26 11:42:54;;;;;;;14.57;13.37;;;8.60;99.90;;;;;;4895806;29;20204;-80
2022/11/26 11:45:31;;;;;;;7.53;6.90;;;8.60;99.90;;;;;;4895528;29;20256;-80
2022/11/26 11:48:06;;;;;;;6.00;5.30;;;8.60;99.90;;;;;;4897046;29;20384;-79
2022/11/26 11:50:37;;;;;;;5.13;4.50;;;8.60;99.90;;;;;;4889489;29;20609;-80
2022/11/26 11:53:20;;;;;;;5.57;5.00;;;8.60;99.90;;;;;;4895886;29;20828;-80
2022/11/26 11:55:58;;;;;;;5.47;4.97;;;8.60;99.90;;;;;;4897545;29;20204;-80
2022/11/26 11:58:50;;;;;;;4.60;4.10;;;8.60;99.90;;;;;;4895729;29;20219;-79
2022/11/26 12:01:30;;;;;;;10.13;9.43;;;8.60;99.90;;;;;;4896217;29;20224;-79
2022/11/26 12:04:20;;;;;;;11.30;10.20;;;8.70;99.90;;;;;;4897046;29;20638;-80
2022/11/26 12:06:56;;;;;;;12.40;11.70;;;8.70;99.90;;;;;;4891799;29;20684;-80
2022/11/26 12:09:31;;;;;;;6.53;5.93;;;8.70;99.90;;;;;;4895396;29;20206;-79
2022/11/26 12:12:04;;;;;;;6.73;5.07;;;8.80;99.90;;;;;;4892121;29;20229;-80
2022/11/26 12:14:38;;;;;;;7.20;6.33;;;8.80;99.90;;;;;;4892777;29;20669;-80
2022/11/26 12:17:11;;;;;;;6.50;5.97;;;8.70;99.90;;;;;;4903627;29;20208;-81
2022/11/26 12:19:44;;;;;;;6.90;6.27;;;8.80;99.90;;;;;;4896070;29;20672;-80
2022/11/26 12:22:18;;;;;;;6.23;5.83;;;8.80;99.90;;;;;;4900794;29;20220;-80
2022/11/26 12:24:49;;;;;;;9.63;9.03;;;8.80;99.90;;;;;;4899866;29;20205;-81
2022/11/26 12:27:27;;;;;;;7.87;7.27;;;8.80;99.90;;;;;;4900105;29;20487;-80
2022/11/26 12:29:58;;;;;;;13.27;12.37;;;8.80;99.90;;;;;;4899697;29;20650;-80
2022/11/26 12:32:33;;;;;;;11.50;10.70;;;8.90;99.90;;;;;;4899185;29;20231;-79
2022/11/26 12:35:06;;;;;;;11.17;10.37;;;8.90;99.90;;;;;;4899110;29;20219;-79
2022/11/26 12:37:36;;;;;;;11.70;10.90;;;8.90;99.90;;;;;;4899689;29;20279;-80
2022/11/26 12:40:08;;;;;;;11.13;10.33;;;8.90;99.90;;;;;;4899816;29;20283;-80
2022/11/26 12:42:44;;;;;;;11.77;10.90;;;8.90;99.90;;;;;;4898745;29;20235;-79
2022/11/26 12:45:20;;;;;;;12.60;11.60;;;9.00;99.90;;;;;;4899789;29;20677;-79
2022/11/26 12:47:53;;;;;;;12.30;11.50;;;9.00;99.90;;;;;;4900381;29;20197;-79
2022/11/26 12:50:27;;;;;;;12.10;11.40;;;9.00;99.90;;;;;;4899736;29;20208;-79
2022/11/26 12:53:01;;;;;;;12.13;11.30;;;9.00;99.90;;;;;;4898838;29;20419;-79
2022/11/26 12:55:35;;;;;;;11.90;11.03;;;9.10;99.90;;;;;;4891229;29;20201;-79
2022/11/26 12:58:14;;;;;;;11.80;11.00;;;9.00;99.90;;;;;;4898623;29;20556;-79
2022/11/26 13:00:41;;;;;;;12.40;11.70;;;9.00;99.90;;;;;;4884724;29;20227;-79
2022/11/26 13:03:15;;;;;;;12.27;11.47;;;9.00;99.90;;;;;;4901028;29;20201;-80
2022/11/26 13:05:51;;;;;;;13.03;12.23;;;9.00;99.90;;;;;;4898920;29;20582;-80
2022/11/26 13:08:32;;;;;;;12.70;11.90;;;9.00;99.90;;;;;;4898668;29;20212;-80
2022/11/26 13:11:13;;;;;;;12.70;11.93;;;9.00;99.90;;;;;;4899638;29;20228;-80
2022/11/26 13:13:51;;;;;;;12.10;11.30;;;9.00;99.90;;;;;;4892851;29;20224;-81
2022/11/26 13:16:24;;;;;;;12.10;11.30;;;9.00;99.90;;;;;;4899618;29;20211;-79
2022/11/26 13:18:55;;;;;;;12.60;11.80;;;9.00;99.90;;;;;;4899725;29;20660;-79
2022/11/26 13:21:37;;;;;;;12.30;11.60;;;9.10;99.90;;;;;;4898074;29;20235;-79
2022/11/26 13:24:19;;;;;;;11.90;11.20;;;9.00;99.90;;;;;;4899010;29;20209;-80
2022/11/26 13:27:06;;;;;;;12.30;11.40;;;9.00;99.90;;;;;;4897835;29;20211;-80
2022/11/26 13:30:00;;;;;;;12.10;11.30;;;9.00;99.90;;;;;;4892200;29;20204;-81
2022/11/26 13:32:59;;;;;;;11.67;10.73;;;9.00;99.90;;;;;;4890168;29;20244;-81
2022/11/26 13:35:46;;;;;;;11.50;10.70;;;9.00;99.90;;;;;;4898244;29;20197;-80
2022/11/26 13:38:21;;;;;;;11.43;10.73;;;8.90;99.90;;;;;;4898191;29;20209;-80
2022/11/26 13:41:05;;;;;;;10.97;10.10;;;8.90;99.90;;;;;;4898079;29;20219;-80
2022/11/26 13:44:03;;;;;;;10.90;10.20;;;8.90;99.90;;;;;;4892424;29;20193;-81
2022/11/26 13:46:37;;;;;;;11.00;10.30;;;8.90;99.90;;;;;;4859928;29;20201;-80
2022/11/26 13:49:11;;;;;;;11.00;10.33;;;8.90;99.90;;;;;;4896156;29;20200;-80
2022/11/26 13:51:43;;;;;;;11.03;10.33;;;8.90;99.90;;;;;;4898886;29;20219;-81
2022/11/26 13:54:15;;;;;;;10.80;10.10;;;8.90;99.90;;;;;;4899018;29;20618;-80
2022/11/26 13:56:44;;;;;;;11.07;10.37;;;8.90;99.90;;;;;;4897824;29;20260;-80
2022/11/26 13:59:17;;;;;;;10.87;10.17;;;8.90;99.90;;;;;;4897763;29;20690;-80
2022/11/26 14:01:46;;;;;;;10.87;10.27;;;8.90;99.90;;;;;;4898584;29;20224;-80
2022/11/26 14:04:14;;;;;;;10.63;10.03;;;8.90;99.90;;;;;;4898763;29;20200;-80
2022/11/26 14:07:16;;;;;;;10.60;10.00;;;8.80;99.90;;;;;;4898035;29;20336;-80
2022/11/26 14:09:50;;;;;;;10.90;10.30;;;8.80;99.90;;;;;;4892060;29;20329;-80
2022/11/26 14:12:18;;;;;;;11.00;10.40;;;8.80;99.90;;;;;;4897206;29;20238;-80
2022/11/26 14:14:46;;;;;;;10.90;10.30;;;8.80;99.90;;;;;;4897866;29;20189;-81
2022/11/26 14:17:18;;;;;;;11.00;10.30;;;8.70;99.90;;;;;;4898675;29;20208;-80
2022/11/26 14:20:01;;;;;;;10.93;10.23;;;8.70;99.90;;;;;;4897366;29;20580;-80
2022/11/26 14:22:30;;;;;;;10.87;10.17;;;8.70;99.90;;;;;;4894991;29;20220;-80
2022/11/26 14:25:00;;;;;;;11.33;10.53;;;8.70;99.90;;;;;;4899073;29;20200;-80
2022/11/26 14:27:30;;;;;;;11.00;10.13;;;8.70;99.90;;;;;;4896462;29;20200;-81
2022/11/26 14:30:18;;;;;;;11.03;10.43;;;8.60;99.90;;;;;;4898406;29;20208;-82
2022/11/26 14:32:54;;;;;;;10.60;10.00;;;8.60;99.90;;;;;;4892155;29;20272;-82
2022/11/26 14:35:25;;;;;;;11.23;10.53;;;8.60;99.90;;;;;;4897530;29;20205;-81
2022/11/26 14:37:54;;;;;;;11.07;10.47;;;8.60;99.90;;;;;;4897763;29;20209;-80
2022/11/26 14:40:24;;;;;;;11.10;10.40;;;8.50;99.90;;;;;;4901213;29;20200;-81
2022/11/26 14:43:07;;;;;;;11.00;10.30;;;8.40;99.90;;;;;;4898364;29;20203;-81
2022/11/26 14:45:34;;;;;;;10.50;9.90;;;8.40;99.90;;;;;;4892401;29;20196;-80
2022/11/26 14:48:03;;;;;;;11.27;10.47;;;8.40;99.90;;;;;;4897639;29;20613;-81
2022/11/26 14:50:32;;;;;;;11.00;10.40;;;8.40;99.90;;;;;;4887242;29;20236;-81
2022/11/26 14:53:04;;;;;;;11.20;10.50;;;8.30;99.90;;;;;;4895954;29;20721;-81
2022/11/26 14:55:32;;;;;;;11.00;10.30;;;8.30;99.90;;;;;;4893788;29;20208;-78
2022/11/26 14:58:03;;;;;;;10.63;9.93;;;8.20;99.90;;;;;;4899408;29;20579;-78
2022/11/26 15:00:31;;;;;;;11.10;10.40;;;8.10;99.90;;;;;;4894872;29;20207;-80
2022/11/26 15:03:01;;;;;;;11.33;10.63;;;8.10;99.90;;;;;;4888323;29;20197;-80
2022/11/26 15:05:31;;;;;;;11.00;10.40;;;8.00;99.90;;;;;;4895393;29;20640;-80
2022/11/26 15:08:01;;;;;;;11.37;10.67;;;8.00;99.90;;;;;;4893882;29;20747;-80
2022/11/26 15:10:33;;;;;;;11.47;10.67;;;7.90;99.90;;;;;;4896170;29;20211;-79
2022/11/26 15:13:04;;;;;;;11.07;10.43;;;7.90;99.90;;;;;;4897297;29;20217;-80
2022/11/26 15:15:31;;;;;;;10.90;10.23;;;7.90;99.90;;;;;;4906113;29;20204;-79
2022/11/26 15:18:01;;;;;;;10.87;10.17;;;7.80;99.90;;;;;;4894681;29;20207;-80
2022/11/26 15:20:29;;;;;;;11.40;10.67;;;7.70;99.90;;;;;;4893140;29;20211;-80
2022/11/26 15:22:59;;;;;;;11.60;10.90;;;7.50;99.90;;;;;;4897974;29;20195;-80
2022/11/26 15:25:28;;;;;;;12.17;11.20;;;7.40;99.90;;;;;;4894852;29;21016;-80
2022/11/26 15:27:58;;;;;;;11.73;11.03;;;7.20;99.90;;;;;;4903652;29;20211;-80
2022/11/26 15:30:27;;;;;;;12.80;11.90;;;7.10;99.90;;;;;;4897560;29;20220;-79
2022/11/26 15:32:59;;;;;;;12.20;11.40;;;7.00;99.90;;;;;;4896351;29;20231;-80
2022/11/26 15:35:27;;;;;;;12.50;11.63;;;6.80;99.90;;;;;;4896112;29;20670;-80
2022/11/26 15:37:55;;;;;;;12.50;11.60;;;6.70;99.90;;;;;;4897182;29;20199;-79
2022/11/26 15:40:24;;;;;;;13.07;12.00;;;6.60;99.90;;;;;;4893441;29;21148;-80
2022/11/26 15:42:55;;;;;;;12.83;11.83;;;6.40;99.90;;;;;;4894661;29;20205;-80
2022/11/26 15:45:25;;;;;;;13.07;11.97;;;6.40;99.90;;;;;;4897114;29;20220;-80
2022/11/26 15:47:54;;;;;;;13.60;12.67;;;6.20;99.90;;;;;;4897012;29;20221;-80
2022/11/26 15:50:30;;;;;;;13.23;12.30;;;6.10;99.90;;;;;;4898696;29;20263;-80
2022/11/26 15:53:03;;;;;;;13.17;11.97;;;6.00;99.90;;;;;;4894152;29;20209;-80
2022/11/26 15:55:33;;;;;;;12.37;11.43;;;5.80;99.90;;;;;;4899040;29;20751;-80